11/6 a 18/6 - Breve vuelta al frío y luego nuevamente templado/cálido y húmedo C y N; nevadas Patagonia y Cordillera

Avatar de Usuario
juanvanni99
Mensajes: 184
Registrado: Mié Feb 07, 2018 7:28 pm
Ubicación: Montevideo

Re: 11/6 a 18/6 - Breve vuelta al frío y luego nuevamente templado/cálido y húmedo C y N; nevadas Patagonia y Cordillera

Mensaje por juanvanni99 » Jue Jun 18, 2020 1:10 am

21.6°C la T y 70% la HR por Montevideo.
Interesantes rafagas del norte.
A la espera del frente nomas!
Mientras tanto el Inumet emitió una alerta naranja que afecta gran parte del país.


Avatar de Usuario
Porra
Mensajes: 4201
Registrado: Dom Jul 12, 2009 7:43 pm
Ubicación: Ciudad de Buenos Aires, Caballito

Re: 11/6 a 18/6 - Breve vuelta al frío y luego nuevamente templado/cálido y húmedo C y N; nevadas Patagonia y Cordillera

Mensaje por Porra » Jue Jun 18, 2020 1:24 am

Acaba de caer un relámpago no tan cercano, pero fue tan fuerte que el trueno hizo vibrar todas las ventanas. Debería destacarse bastante del resto de la actividad eléctrica.
"Dios me odia" y "estaba relampagueando como un campeon" son frases registradas por Porra Inc. Derechos reservados para su uso y difusión.


Avatar de Usuario
Ezequiel15
Mensajes: 11507
Registrado: Lun Ene 23, 2012 4:18 pm
Ubicación: I Casanova
Contactar:

Re: 11/6 a 18/6 - Breve vuelta al frío y luego nuevamente templado/cálido y húmedo C y N; nevadas Patagonia y Cordillera

Mensaje por Ezequiel15 » Jue Jun 18, 2020 1:50 am

Formosa reporta 26,2°C a la 1 de la madrugada (!) :shock:
Causa de muerte de tus padres: "Me estorbaban los dos" C.M.B.


https://infometeoba.blogspot.com.ar/

Avatar de Usuario
Seba
Mensajes: 16984
Registrado: Mié Jul 15, 2009 3:31 pm
Ubicación: Palermo, CABA

Re: 11/6 a 18/6 - Breve vuelta al frío y luego nuevamente templado/cálido y húmedo C y N; nevadas Patagonia y Cordillera

Mensaje por Seba » Jue Jun 18, 2020 2:14 am

Porra escribió:
Jue Jun 18, 2020 12:48 am
Seba escribió:
Jue Jun 18, 2020 12:41 am
Parque Centenario reportó 20 nudos y 65 mm/h de intensidad máxima.
Cayeron 14 mm en poco más de 10 minutos.
Entonces deben haber sido al menos 13 minutos para que la tasa máxima sea de 65 mm/h y el acumulado de 14 mm :roll: :roll: :roll:
Por eso poco más de 10 minutos jaja. La EMA reporta cada 10 minutos, en datos fueron en 20 minutos esos 14 mm pero por lo que vi en vivo se dieron en un lapso menor.
Con raíces pero en libertad.

Avatar de Usuario
Diecha
Mensajes: 11510
Registrado: Jue Ago 25, 2011 9:31 pm
Ubicación: Lomas de Zamora

Re: 11/6 a 18/6 - Breve vuelta al frío y luego nuevamente templado/cálido y húmedo C y N; nevadas Patagonia y Cordillera

Mensaje por Diecha » Jue Jun 18, 2020 2:20 am



- San Fernando 02 hs: SADF 180500Z 07008KT 6000 -TSRA FEW045CB OVC070 17/16 Q0998
- Aeroparque 02 hs: SABE 180500Z 32005KT 7000 -TSRA FEW039CB BKN055 17/16 Q1001
- Ezeiza 02 hs: SAEZ 180500Z 04005KT 7000 TSRA BKN030 FEW045CB OVC070 16/16 Q0999

Imagen
Imagen


Avatar de Usuario
pupy
Mensajes: 2432
Registrado: Mar Mar 02, 2010 7:15 pm
Ubicación: Cordoba capital

Re: 11/6 a 18/6 - Breve vuelta al frío y luego nuevamente templado/cálido y húmedo C y N; nevadas Patagonia y Cordillera

Mensaje por pupy » Jue Jun 18, 2020 2:36 am

Cordoba Aero T 6.5 C ST 4.3 C Algo nublado
Cordoba Obs. T 12 despejado

Datos Hora 02:00

Avatar de Usuario
Twisted.inweather
Mensajes: 647
Registrado: Vie Jul 22, 2016 1:43 am

Re: 11/6 a 18/6 - Breve vuelta al frío y luego nuevamente templado/cálido y húmedo C y N; nevadas Patagonia y Cordillera

Mensaje por Twisted.inweather » Jue Jun 18, 2020 2:53 am

De haber podido ir al muelle, hubiera sacado bastantes fotos, pero bueno, algo es algo y cayó bien cerquita este rayo positivo! :)

Quilmes
DSC_0809.jpg

Responder